createdAt,value
2019-04-14T00:00:35.610Z,56.05
2019-04-14T00:03:15.099Z,54.38
2019-04-14T00:05:45.096Z,57.20
2019-04-14T00:08:13.663Z,60.43
2019-04-14T00:10:42.250Z,53.92
2019-04-14T00:13:11.030Z,56.70
2019-04-14T00:15:45.075Z,53.83
2019-04-14T00:18:09.717Z,57.93
2019-04-14T00:20:38.288Z,53.90
2019-04-14T00:23:06.803Z,55.48
2019-04-14T00:25:35.274Z,51.30
2019-04-14T00:28:03.838Z,52.45
2019-04-14T00:30:32.310Z,51.43
2019-04-14T00:33:02.436Z,52.55
2019-04-14T00:35:49.450Z,57.53
2019-04-14T00:38:19.755Z,50.03
2019-04-14T00:41:02.879Z,54.05
2019-04-14T00:43:37.364Z,53.33
2019-04-14T00:46:07.951Z,53.13
2019-04-14T00:48:36.696Z,52.93
2019-04-14T00:51:05.272Z,54.37
2019-04-14T00:53:33.918Z,54.80
2019-04-14T00:56:02.429Z,56.37
2019-04-14T00:58:31.962Z,58.17
2019-04-14T01:01:00.960Z,54.37
2019-04-14T01:03:29.457Z,54.90
2019-04-14T01:05:58.989Z,56.23
2019-04-14T01:08:27.545Z,55.47
2019-04-14T01:10:56.255Z,52.53
2019-04-14T01:13:24.761Z,52.98
2019-04-14T01:16:02.543Z,53.35
2019-04-14T01:18:23.386Z,56.77
2019-04-14T01:20:51.837Z,62.23
2019-04-14T01:23:21.449Z,56.40
2019-04-14T01:25:50.019Z,55.30
2019-04-14T01:28:18.515Z,54.40
2019-04-14T01:30:47.936Z,51.43
2019-04-14T01:33:16.463Z,55.57
2019-04-14T01:35:44.929Z,50.53
2019-04-14T01:38:14.670Z,57.45
2019-04-14T01:40:44.458Z,62.00
2019-04-14T01:43:13.000Z,54.50
2019-04-14T01:45:42.541Z,54.60
2019-04-14T01:48:11.058Z,59.77
2019-04-14T01:50:41.161Z,57.73
2019-04-14T01:53:11.919Z,53.23
2019-04-14T01:55:44.645Z,69.55
2019-04-14T01:58:20.756Z,62.37
2019-04-14T02:00:51.286Z,58.28
2019-04-14T02:03:19.941Z,59.77
2019-04-14T02:05:49.573Z,61.90
2019-04-14T02:08:18.246Z,57.48
2019-04-14T02:10:47.849Z,57.70
2019-04-14T02:13:16.407Z,55.90
2019-04-14T02:15:44.870Z,55.30
2019-04-14T02:18:14.267Z,56.15
2019-04-14T02:20:42.842Z,65.37
2019-04-14T02:23:12.452Z,58.58
2019-04-14T02:25:41.005Z,66.07
2019-04-14T02:28:09.503Z,62.27
2019-04-14T02:30:44.320Z,65.33
2019-04-14T02:36:14.494Z,65.05
2019-04-14T02:41:14.036Z,64.67
2019-04-14T02:44:04.606Z,68.83
2019-04-14T02:46:02.622Z,70.72
2019-04-14T02:51:12.491Z,63.48
2019-04-14T02:56:08.285Z,58.37
2019-04-14T02:58:45.953Z,59.43
2019-04-14T03:01:11.847Z,63.77
2019-04-14T03:06:05.319Z,65.50
2019-04-14T03:08:45.124Z,59.13
2019-04-14T03:13:35.426Z,65.45
2019-04-14T03:18:37.867Z,60.77
2019-04-14T03:21:24.595Z,56.07
2019-04-14T03:24:10.893Z,61.03
2019-04-14T03:26:43.837Z,54.67
2019-04-14T03:37:31.544Z,53.05
2019-04-14T03:44:37.535Z,57.20
2019-04-14T03:47:08.728Z,57.47
2019-04-14T03:49:42.783Z,57.27
2019-04-14T03:54:25.911Z,65.17
2019-04-14T03:56:53.645Z,60.55
2019-04-14T03:59:23.640Z,59.97
2019-04-14T04:01:52.608Z,62.60
2019-04-14T04:04:21.070Z,62.73
2019-04-14T04:06:50.871Z,63.15
2019-04-14T04:09:21.459Z,63.23
2019-04-14T04:11:49.939Z,62.67
2019-04-14T04:14:18.401Z,57.37
2019-04-14T04:16:55.097Z,66.42
2019-04-14T04:19:25.258Z,61.30
2019-04-14T04:22:11.129Z,53.00
2019-04-14T04:24:44.019Z,64.47
2019-04-14T04:27:20.223Z,61.00
2019-04-14T04:29:59.268Z,54.27
2019-04-14T04:32:29.753Z,56.95
2019-04-14T04:35:15.859Z,60.00
2019-04-14T04:37:58.517Z,55.88
2019-04-14T04:40:29.061Z,55.90
2019-04-14T04:42:57.505Z,69.17
2019-04-14T04:45:25.998Z,59.00
2019-04-14T04:47:55.542Z,53.20
2019-04-14T04:50:24.071Z,63.83
2019-04-14T04:52:53.912Z,66.90
2019-04-14T04:55:22.475Z,66.22
2019-04-14T04:57:50.943Z,62.43
2019-04-14T05:00:19.928Z,67.42
2019-04-14T05:02:48.525Z,61.33
2019-04-14T05:05:53.589Z,65.97
2019-04-14T05:08:22.080Z,55.92
2019-04-14T05:10:54.915Z,69.17
2019-04-14T05:13:24.849Z,64.00
2019-04-14T05:15:55.263Z,62.60
2019-04-14T05:18:24.729Z,69.57
2019-04-14T05:20:53.372Z,64.10
2019-04-14T05:23:21.832Z,62.17
2019-04-14T05:25:51.593Z,69.77
2019-04-14T05:28:20.214Z,64.03
2019-04-14T05:30:48.730Z,60.47
2019-04-14T05:33:18.324Z,60.67
2019-04-14T05:35:46.996Z,62.23
2019-04-14T05:38:15.485Z,66.80
2019-04-14T05:40:44.985Z,62.20
2019-04-14T05:43:26.501Z,63.00
2019-04-14T05:45:43.764Z,65.57
2019-04-14T05:48:12.252Z,73.02
2019-04-14T05:50:40.731Z,65.07
2019-04-14T05:53:09.223Z,61.05
2019-04-14T05:55:37.687Z,56.90
2019-04-14T05:58:06.247Z,65.83
2019-04-14T06:00:36.362Z,61.20
2019-04-14T06:03:05.986Z,59.63
2019-04-14T06:05:34.523Z,57.27
2019-04-14T06:08:03.017Z,62.65
2019-04-14T06:10:31.483Z,63.47
2019-04-14T06:12:59.983Z,61.02
2019-04-14T06:15:28.514Z,57.78
2019-04-14T06:17:57.015Z,56.13
2019-04-14T06:20:25.477Z,57.23
2019-04-14T06:22:54.898Z,58.48
2019-04-14T06:25:23.368Z,61.75
2019-04-14T06:27:51.861Z,66.40
2019-04-14T06:30:27.643Z,60.28
2019-04-14T06:32:57.782Z,62.90
2019-04-14T06:35:27.882Z,57.50
2019-04-14T06:37:58.021Z,62.65
2019-04-14T06:40:28.128Z,60.43
2019-04-14T06:42:56.789Z,59.15
2019-04-14T06:45:25.249Z,54.33
2019-04-14T06:47:53.746Z,62.98
2019-04-14T06:50:22.214Z,60.17
2019-04-14T06:52:50.707Z,71.30
2019-04-14T06:55:19.173Z,61.33
2019-04-14T06:57:47.667Z,67.03
2019-04-14T07:00:16.207Z,57.00
2019-04-14T07:02:45.506Z,60.85
2019-04-14T07:05:14.813Z,62.60
2019-04-14T07:07:43.309Z,61.83
2019-04-14T07:10:11.845Z,62.23
2019-04-14T07:12:42.885Z,70.42
2019-04-14T07:15:10.621Z,69.07
2019-04-14T07:17:39.118Z,75.17
2019-04-14T07:20:07.662Z,67.70
2019-04-14T07:22:36.149Z,61.98
2019-04-14T07:25:05.847Z,72.72
2019-04-14T07:27:34.338Z,63.08
2019-04-14T07:30:13.265Z,57.07
2019-04-14T07:32:46.050Z,63.63
2019-04-14T07:35:22.218Z,64.32
2019-04-14T07:38:00.998Z,133.20
2019-04-14T07:40:33.823Z,72.50
2019-04-14T07:43:03.960Z,58.40
2019-04-14T07:45:34.069Z,57.40
2019-04-14T07:48:06.933Z,59.80
2019-04-14T07:50:39.805Z,63.20
2019-04-14T07:53:09.948Z,67.03
2019-04-14T07:55:42.495Z,58.95
2019-04-14T07:58:28.351Z,63.30
2019-04-14T08:00:58.462Z,57.33
2019-04-14T08:03:44.635Z,57.20
2019-04-14T08:06:13.109Z,59.77
2019-04-14T08:08:41.596Z,59.77
2019-04-14T08:11:10.066Z,58.33
2019-04-14T08:13:38.554Z,57.70
2019-04-14T08:16:07.026Z,61.37
2019-04-14T08:18:35.522Z,62.48
2019-04-14T08:21:04.063Z,55.50
2019-04-14T08:23:32.556Z,60.30
2019-04-14T08:26:01.021Z,54.60
2019-04-14T08:28:29.517Z,59.50
2019-04-14T08:30:57.995Z,61.07
2019-04-14T08:33:26.485Z,56.80
2019-04-14T08:35:54.947Z,58.47
2019-04-14T08:38:23.443Z,61.67
2019-04-14T08:40:51.915Z,59.07
2019-04-14T08:43:22.118Z,52.27
2019-04-14T08:46:01.000Z,54.95
2019-04-14T08:48:46.959Z,56.90
2019-04-14T08:51:33.439Z,55.60
2019-04-14T08:54:03.570Z,58.87
2019-04-14T08:56:33.686Z,57.13
2019-04-14T08:59:19.824Z,55.60
2019-04-14T09:01:54.490Z,56.23
2019-04-14T09:04:41.085Z,54.90
2019-04-14T09:07:27.625Z,59.23
2019-04-14T09:10:14.085Z,61.60
2019-04-14T09:12:50.149Z,58.83
2019-04-14T09:15:18.744Z,55.03
2019-04-14T09:17:47.210Z,54.63
2019-04-14T09:20:15.772Z,55.43
2019-04-14T09:22:44.245Z,63.10
2019-04-14T09:25:12.808Z,61.87
2019-04-14T09:27:41.269Z,54.35
2019-04-14T09:30:09.943Z,59.63
2019-04-14T09:32:38.395Z,59.30
2019-04-14T09:35:06.969Z,56.43
2019-04-14T09:37:35.437Z,54.83
2019-04-14T09:40:04.298Z,55.70
2019-04-14T09:42:32.762Z,59.03
2019-04-14T09:45:01.269Z,57.97
2019-04-14T09:47:29.733Z,54.23
2019-04-14T09:49:58.230Z,54.13
2019-04-14T09:52:26.794Z,57.90
2019-04-14T09:54:55.317Z,58.67
2019-04-14T09:57:23.779Z,57.23
2019-04-14T09:59:52.273Z,52.60
2019-04-14T10:02:20.773Z,65.80
2019-04-14T10:04:49.360Z,57.33
2019-04-14T10:07:17.824Z,54.87
2019-04-14T10:09:46.375Z,59.93
2019-04-14T10:12:14.839Z,57.20
2019-04-14T10:14:43.339Z,55.45
2019-04-14T10:17:11.803Z,54.13
2019-04-14T10:19:40.310Z,59.65
2019-04-14T10:22:08.779Z,58.83
2019-04-14T10:24:37.349Z,62.87
2019-04-14T10:27:08.988Z,60.77
2019-04-14T10:29:37.494Z,61.50
2019-04-14T10:32:05.971Z,53.90
2019-04-14T10:34:34.465Z,54.80
2019-04-14T10:37:02.971Z,56.80
2019-04-14T10:39:31.468Z,67.37
2019-04-14T10:41:59.953Z,51.27
2019-04-14T10:44:28.419Z,51.70
2019-04-14T10:46:56.920Z,57.17
2019-04-14T10:49:25.386Z,51.07
2019-04-14T10:51:53.888Z,61.20
2019-04-14T10:54:22.434Z,64.53
2019-04-14T10:56:50.959Z,103.20
2019-04-14T10:59:19.431Z,56.27
2019-04-14T11:01:47.930Z,61.58
2019-04-14T11:04:16.406Z,60.77
2019-04-14T11:06:52.333Z,53.60
2019-04-14T11:09:25.176Z,52.60
2019-04-14T11:11:53.712Z,55.70
2019-04-14T11:14:22.166Z,56.33
2019-04-14T11:16:54.247Z,54.63
2019-04-14T11:19:23.016Z,61.80
2019-04-14T11:21:51.519Z,49.47
2019-04-14T11:24:19.987Z,50.00
2019-04-14T11:26:48.497Z,49.90
2019-04-14T11:29:16.974Z,48.40
2019-04-14T11:31:55.903Z,48.92
2019-04-14T11:34:38.016Z,57.27
2019-04-14T11:37:23.446Z,52.90
2019-04-14T11:39:51.947Z,47.98
2019-04-14T11:42:20.511Z,44.75
2019-04-14T11:44:49.072Z,47.60
2019-04-14T11:47:17.576Z,48.73
2019-04-14T11:49:46.031Z,44.93
2019-04-14T11:52:14.558Z,47.37
2019-04-14T11:54:43.033Z,46.00
2019-04-14T11:57:11.531Z,40.20
2019-04-14T11:59:41.634Z,41.13
2019-04-14T12:02:12.966Z,39.70
2019-04-14T12:04:43.087Z,45.10
2019-04-14T12:07:13.232Z,31.67
2019-04-14T12:09:55.419Z,36.55
2019-04-14T12:12:23.931Z,35.40
2019-04-14T12:14:53.833Z,30.17
2019-04-14T12:17:22.351Z,31.57
2019-04-14T12:19:50.846Z,35.65
2019-04-14T12:22:19.337Z,27.55
2019-04-14T12:24:47.887Z,30.23
2019-04-14T12:27:16.395Z,30.00
2019-04-14T12:29:45.777Z,30.40
2019-04-14T12:32:15.089Z,27.97
2019-04-14T12:34:43.727Z,26.97
2019-04-14T12:37:12.329Z,28.40
2019-04-14T12:39:40.891Z,28.87
2019-04-14T12:42:26.086Z,30.67
2019-04-14T12:44:58.897Z,34.92
2019-04-14T12:47:36.604Z,32.55
2019-04-14T12:50:19.621Z,27.57
2019-04-14T12:52:48.130Z,30.43
2019-04-14T12:55:16.680Z,28.80
2019-04-14T12:57:46.820Z,31.73
2019-04-14T13:00:17.304Z,26.97
2019-04-14T13:02:47.455Z,30.62
2019-04-14T13:05:15.966Z,32.10
2019-04-14T13:07:44.531Z,31.37
2019-04-14T13:10:13.374Z,29.43
2019-04-14T13:12:41.874Z,28.70
2019-04-14T13:15:10.893Z,31.40
2019-04-14T13:17:39.804Z,29.98
2019-04-14T13:20:09.187Z,34.67
2019-04-14T13:22:37.763Z,34.95
2019-04-14T13:25:06.607Z,48.00
2019-04-14T13:27:35.497Z,33.00
2019-04-14T13:30:06.063Z,34.60
2019-04-14T13:32:36.241Z,36.25
2019-04-14T13:35:06.612Z,35.30
2019-04-14T13:37:35.118Z,30.12
2019-04-14T13:40:05.324Z,30.37
2019-04-14T13:42:33.849Z,29.92
2019-04-14T13:45:02.335Z,32.53
2019-04-14T13:47:30.882Z,43.80
2019-04-14T13:49:59.376Z,31.50
2019-04-14T13:52:30.724Z,29.80
2019-04-14T13:54:58.051Z,30.77
2019-04-14T13:57:26.586Z,28.13
2019-04-14T13:59:55.056Z,28.60
2019-04-14T14:02:23.593Z,31.07
2019-04-14T14:04:52.052Z,28.27
2019-04-14T14:07:20.630Z,26.03
2019-04-14T14:09:49.116Z,32.93
2019-04-14T14:12:28.223Z,27.83
2019-04-14T14:15:08.629Z,28.53
2019-04-14T14:17:46.024Z,31.85
2019-04-14T14:20:16.378Z,30.70
2019-04-14T14:22:59.361Z,27.15
2019-04-14T14:25:33.550Z,28.32
2019-04-14T14:28:02.122Z,26.95
2019-04-14T14:30:30.597Z,26.40
2019-04-14T14:32:59.094Z,25.37
2019-04-14T14:35:27.571Z,30.90
2019-04-14T14:37:56.072Z,30.32
2019-04-14T14:40:24.541Z,25.90
2019-04-14T14:42:53.042Z,25.75
2019-04-14T14:45:41.603Z,28.45
2019-04-14T14:48:23.719Z,32.53
2019-04-14T14:51:10.418Z,34.63
2019-04-14T14:53:38.923Z,30.77
2019-04-14T14:56:07.397Z,30.63
2019-04-14T14:58:35.936Z,26.93
2019-04-14T15:01:05.851Z,30.57
2019-04-14T15:03:34.362Z,29.23
2019-04-14T15:06:02.834Z,33.50
2019-04-14T15:08:31.342Z,34.40
2019-04-14T15:10:59.821Z,36.07
2019-04-14T15:13:28.390Z,32.90
2019-04-14T15:15:56.879Z,29.80
2019-04-14T15:18:25.372Z,30.68
2019-04-14T15:20:53.842Z,32.77
2019-04-14T15:23:25.079Z,30.62
2019-04-14T15:25:52.466Z,30.88
2019-04-14T15:28:21.052Z,28.20
2019-04-14T15:30:49.528Z,31.30
2019-04-14T15:33:18.035Z,28.23
2019-04-14T15:35:46.503Z,30.40
2019-04-14T15:38:15.015Z,33.70
2019-04-14T15:40:43.486Z,31.63
2019-04-14T15:43:11.965Z,23.10
2019-04-14T15:45:40.465Z,28.77
2019-04-14T15:48:08.945Z,32.63
2019-04-14T15:50:37.447Z,30.23
2019-04-14T15:53:05.926Z,28.12
2019-04-14T15:55:34.427Z,28.97
2019-04-14T15:58:22.651Z,29.07
2019-04-14T16:00:52.780Z,33.10
2019-04-14T16:03:22.890Z,28.55
2019-04-14T16:05:53.039Z,32.75
2019-04-14T16:08:23.170Z,28.77
2019-04-14T16:10:59.168Z,30.23
2019-04-14T16:13:31.978Z,30.93
2019-04-14T16:16:18.166Z,26.67
2019-04-14T16:19:00.411Z,28.53
2019-04-14T16:21:28.896Z,30.53
2019-04-14T16:23:57.393Z,30.70
2019-04-14T16:26:39.082Z,25.57
2019-04-14T16:29:09.230Z,29.40
2019-04-14T16:31:45.156Z,26.40
2019-04-14T16:34:15.286Z,19.35
2019-04-14T16:36:45.466Z,26.03
2019-04-14T16:39:13.937Z,23.50
2019-04-14T16:41:42.530Z,23.80
2019-04-14T16:44:11.005Z,29.53
2019-04-14T16:46:39.511Z,23.43
2019-04-14T16:49:08.063Z,21.00
2019-04-14T16:51:50.032Z,22.03
2019-04-14T16:54:28.992Z,21.30
2019-04-14T16:57:17.244Z,29.87
2019-04-14T16:59:45.757Z,25.37
2019-04-14T17:02:14.228Z,23.37
2019-04-14T17:04:42.774Z,23.80
2019-04-14T17:07:11.281Z,24.77
2019-04-14T17:09:39.750Z,27.60
2019-04-14T17:12:08.267Z,30.70
2019-04-14T17:14:50.220Z,40.00
2019-04-14T17:17:22.790Z,35.57
2019-04-14T17:20:08.913Z,25.17
2019-04-14T17:22:41.747Z,27.75
2019-04-14T17:25:12.026Z,24.53
2019-04-14T17:27:54.054Z,25.10
2019-04-14T17:30:32.806Z,20.33
2019-04-14T17:33:05.331Z,28.73
2019-04-14T17:35:51.437Z,22.70
2019-04-14T17:38:21.552Z,23.02
2019-04-14T17:40:51.709Z,23.67
2019-04-14T17:43:24.578Z,26.60
2019-04-14T17:46:03.891Z,24.20
2019-04-14T17:48:49.848Z,24.02
2019-04-14T17:51:19.979Z,23.07
2019-04-14T17:53:50.140Z,26.85
2019-04-14T17:56:35.473Z,31.27
2019-04-14T17:59:08.018Z,23.10
2019-04-14T18:01:54.910Z,22.87
2019-04-14T18:04:43.210Z,27.97
2019-04-14T18:07:22.142Z,29.25
2019-04-14T18:09:52.255Z,20.87
2019-04-14T18:12:25.153Z,24.57
2019-04-14T18:14:59.009Z,24.90
2019-04-14T18:17:34.956Z,24.45
2019-04-14T18:20:11.846Z,30.93
2019-04-14T18:22:40.565Z,18.65
2019-04-14T18:25:09.423Z,23.30
2019-04-14T18:27:39.566Z,40.45
2019-04-14T18:30:09.737Z,20.93
2019-04-14T18:32:45.619Z,22.17
2019-04-14T18:35:18.442Z,20.62
2019-04-14T18:37:48.604Z,25.30
2019-04-14T18:40:24.312Z,22.98
2019-04-14T18:43:03.333Z,23.92
2019-04-14T18:45:36.222Z,23.80
2019-04-14T18:48:12.325Z,21.42
2019-04-14T18:50:52.091Z,19.63
2019-04-14T18:53:28.318Z,26.57
2019-04-14T18:56:01.151Z,21.77
2019-04-14T18:58:34.323Z,25.43
2019-04-14T19:01:13.463Z,19.27
2019-04-14T19:03:41.958Z,17.93
2019-04-14T19:06:10.442Z,20.90
2019-04-14T19:08:38.939Z,23.10
2019-04-14T19:11:14.910Z,18.00
2019-04-14T19:13:51.243Z,20.27
2019-04-14T19:16:24.065Z,17.67
2019-04-14T19:18:54.198Z,18.17
2019-04-14T19:21:27.014Z,20.90
2019-04-14T19:23:55.584Z,17.42
2019-04-14T19:26:24.050Z,13.97
2019-04-14T19:28:52.557Z,16.30
2019-04-14T19:31:21.026Z,17.57
2019-04-14T19:33:49.520Z,16.10
2019-04-14T19:36:17.985Z,17.80
2019-04-14T19:38:46.727Z,16.10
2019-04-14T19:41:15.181Z,16.45
2019-04-14T19:43:43.795Z,14.07
2019-04-14T19:46:12.261Z,17.60
2019-04-14T19:48:40.767Z,17.45
2019-04-14T19:51:09.239Z,14.55
2019-04-14T19:53:37.897Z,14.00
2019-04-14T19:56:06.515Z,15.25
2019-04-14T19:58:34.998Z,12.58
2019-04-14T20:01:03.635Z,13.77
2019-04-14T20:03:32.124Z,11.43
2019-04-14T20:06:00.592Z,13.23
2019-04-14T20:08:29.088Z,13.85
2019-04-14T20:10:57.770Z,12.80
2019-04-14T20:13:27.897Z,13.68
2019-04-14T20:16:00.742Z,12.93
2019-04-14T20:18:40.474Z,11.85
2019-04-14T20:21:10.585Z,12.03
2019-04-14T20:23:40.735Z,12.90
2019-04-14T20:26:10.821Z,14.10
2019-04-14T20:28:46.681Z,11.60
2019-04-14T20:31:32.865Z,10.30
2019-04-14T20:34:01.491Z,11.30
2019-04-14T20:36:30.122Z,10.17
2019-04-14T20:38:58.618Z,10.32
2019-04-14T20:41:27.170Z,10.17
2019-04-14T20:43:55.636Z,10.23
2019-04-14T20:46:24.177Z,11.83
2019-04-14T20:48:52.727Z,12.10
2019-04-14T20:51:21.132Z,10.90
2019-04-14T20:53:49.633Z,11.05
2019-04-14T20:56:18.094Z,12.63
2019-04-14T20:58:46.709Z,11.60
2019-04-14T21:01:15.946Z,12.83
2019-04-14T21:07:23.707Z,13.28
2019-04-14T21:09:56.526Z,10.57
2019-04-14T21:12:36.041Z,10.63
2019-04-14T21:15:19.247Z,11.60
2019-04-14T21:17:49.413Z,9.30
2019-04-14T21:20:22.034Z,11.00
2019-04-14T21:22:54.842Z,13.05
2019-04-14T21:25:36.789Z,11.33
2019-04-14T21:28:21.460Z,11.55
2019-04-14T21:30:54.067Z,10.63
2019-04-14T21:33:40.577Z,12.10
2019-04-14T21:36:16.558Z,13.33
2019-04-14T21:38:46.666Z,12.50
2019-04-14T21:41:22.853Z,12.30
2019-04-14T21:43:51.322Z,10.53
2019-04-14T21:46:19.823Z,14.18
2019-04-14T21:48:48.287Z,10.80
2019-04-14T21:51:16.782Z,15.70
2019-04-14T21:53:46.225Z,12.33
2019-04-14T21:56:14.730Z,11.47
2019-04-14T21:58:47.569Z,9.50
2019-04-14T22:01:40.140Z,9.77
2019-04-14T22:04:19.714Z,14.85
2019-04-14T22:06:49.846Z,10.40
2019-04-14T22:09:28.766Z,12.40
2019-04-14T22:11:58.238Z,11.77
2019-04-14T22:14:26.707Z,12.82
2019-04-14T22:16:55.306Z,13.00
2019-04-14T22:19:23.779Z,13.60
2019-04-14T22:21:52.288Z,13.78
2019-04-14T22:24:20.751Z,12.18
2019-04-14T22:26:49.242Z,11.33
2019-04-14T22:29:17.780Z,15.30
2019-04-14T22:31:46.266Z,13.45
2019-04-14T22:34:14.734Z,14.98
2019-04-14T22:36:43.236Z,13.33
2019-04-14T22:39:13.342Z,12.40
2019-04-14T22:41:41.839Z,13.37
2019-04-14T22:44:10.305Z,13.90
2019-04-14T22:46:38.872Z,13.58
2019-04-14T22:49:07.335Z,13.33
2019-04-14T22:51:35.829Z,14.47
2019-04-14T22:54:04.297Z,17.20
2019-04-14T22:56:39.191Z,14.80
2019-04-14T22:59:02.905Z,15.27
2019-04-14T23:01:33.031Z,14.03
2019-04-14T23:04:18.028Z,18.00
2019-04-14T23:06:59.919Z,13.90
2019-04-14T23:09:30.021Z,21.07
2019-04-14T23:12:15.282Z,19.53
2019-04-14T23:14:48.086Z,15.43
2019-04-14T23:17:18.221Z,16.80
2019-04-14T23:20:04.610Z,17.15
2019-04-14T23:22:50.797Z,16.87
2019-04-14T23:25:19.352Z,14.85
2019-04-14T23:27:47.848Z,18.40
2019-04-14T23:30:16.413Z,16.63
2019-04-14T23:32:44.905Z,16.75
2019-04-14T23:35:13.509Z,15.40
2019-04-14T23:37:42.007Z,17.12
2019-04-14T23:40:10.538Z,18.37
2019-04-14T23:42:39.034Z,21.05
2019-04-14T23:45:07.640Z,20.70
2019-04-14T23:47:36.141Z,19.12
2019-04-14T23:50:08.413Z,18.95
2019-04-14T23:52:36.907Z,17.30
2019-04-14T23:55:06.911Z,17.70
2019-04-14T23:57:35.416Z,18.67
